sensor_id;sensor_type;location;lat;lon;timestamp;P1;durP1;ratioP1;P2;durP2;ratioP2
48835;SDS011;62581;47.342;7.908;2024-01-15T00:01:32;62.50;;;24.58;;
48835;SDS011;62581;47.342;7.908;2024-01-15T00:04:00;61.67;;;22.45;;
48835;SDS011;62581;47.342;7.908;2024-01-15T00:06:26;55.83;;;23.40;;
48835;SDS011;62581;47.342;7.908;2024-01-15T00:08:53;62.17;;;23.33;;
48835;SDS011;62581;47.342;7.908;2024-01-15T00:11:20;54.05;;;22.75;;
48835;SDS011;62581;47.342;7.908;2024-01-15T00:13:46;53.92;;;22.20;;
48835;SDS011;62581;47.342;7.908;2024-01-15T00:16:15;57.55;;;22.23;;
48835;SDS011;62581;47.342;7.908;2024-01-15T00:18:41;55.15;;;22.75;;
48835;SDS011;62581;47.342;7.908;2024-01-15T00:21:09;52.58;;;22.33;;
48835;SDS011;62581;47.342;7.908;2024-01-15T00:23:36;52.08;;;21.80;;
48835;SDS011;62581;47.342;7.908;2024-01-15T00:26:03;57.20;;;21.77;;
48835;SDS011;62581;47.342;7.908;2024-01-15T00:28:30;56.25;;;22.77;;
48835;SDS011;62581;47.342;7.908;2024-01-15T00:30:57;55.08;;;20.65;;
48835;SDS011;62581;47.342;7.908;2024-01-15T00:33:25;52.97;;;21.85;;
48835;SDS011;62581;47.342;7.908;2024-01-15T00:35:52;56.22;;;22.13;;
48835;SDS011;62581;47.342;7.908;2024-01-15T00:38:19;46.10;;;21.05;;
48835;SDS011;62581;47.342;7.908;2024-01-15T00:40:46;56.10;;;22.30;;
48835;SDS011;62581;47.342;7.908;2024-01-15T00:43:13;56.80;;;23.42;;
48835;SDS011;62581;47.342;7.908;2024-01-15T00:45:40;57.20;;;21.77;;
48835;SDS011;62581;47.342;7.908;2024-01-15T00:48:07;55.70;;;22.45;;
48835;SDS011;62581;47.342;7.908;2024-01-15T00:50:35;53.60;;;22.15;;
48835;SDS011;62581;47.342;7.908;2024-01-15T00:53:02;57.78;;;23.92;;
48835;SDS011;62581;47.342;7.908;2024-01-15T00:55:29;52.15;;;21.42;;
48835;SDS011;62581;47.342;7.908;2024-01-15T00:57:56;58.25;;;24.98;;
48835;SDS011;62581;47.342;7.908;2024-01-15T01:00:23;60.03;;;24.00;;
48835;SDS011;62581;47.342;7.908;2024-01-15T01:02:50;53.97;;;23.13;;
48835;SDS011;62581;47.342;7.908;2024-01-15T01:05:17;59.83;;;24.60;;
48835;SDS011;62581;47.342;7.908;2024-01-15T01:07:46;40.05;;;19.15;;
48835;SDS011;62581;47.342;7.908;2024-01-15T01:10:13;29.70;;;14.85;;
48835;SDS011;62581;47.342;7.908;2024-01-15T01:12:40;28.80;;;14.68;;
48835;SDS011;62581;47.342;7.908;2024-01-15T01:15:07;30.13;;;15.52;;
48835;SDS011;62581;47.342;7.908;2024-01-15T01:17:34;30.85;;;15.45;;
48835;SDS011;62581;47.342;7.908;2024-01-15T01:20:01;30.88;;;16.60;;
48835;SDS011;62581;47.342;7.908;2024-01-15T01:22:31;32.42;;;16.38;;
48835;SDS011;62581;47.342;7.908;2024-01-15T01:24:59;28.33;;;16.13;;
48835;SDS011;62581;47.342;7.908;2024-01-15T01:27:26;30.10;;;15.80;;
48835;SDS011;62581;47.342;7.908;2024-01-15T01:29:53;32.10;;;15.48;;
48835;SDS011;62581;47.342;7.908;2024-01-15T01:32:20;30.92;;;15.95;;
48835;SDS011;62581;47.342;7.908;2024-01-15T01:34:47;32.50;;;16.88;;
48835;SDS011;62581;47.342;7.908;2024-01-15T01:37:14;39.53;;;17.63;;
48835;SDS011;62581;47.342;7.908;2024-01-15T01:39:41;32.00;;;16.27;;
48835;SDS011;62581;47.342;7.908;2024-01-15T01:42:10;36.42;;;18.10;;
48835;SDS011;62581;47.342;7.908;2024-01-15T01:44:37;33.72;;;16.55;;
48835;SDS011;62581;47.342;7.908;2024-01-15T01:47:04;32.63;;;17.10;;
48835;SDS011;62581;47.342;7.908;2024-01-15T01:49:32;35.17;;;17.10;;
48835;SDS011;62581;47.342;7.908;2024-01-15T01:52:01;32.92;;;17.45;;
48835;SDS011;62581;47.342;7.908;2024-01-15T01:54:29;32.20;;;16.42;;
48835;SDS011;62581;47.342;7.908;2024-01-15T01:59:26;33.00;;;14.75;;
48835;SDS011;62581;47.342;7.908;2024-01-15T02:01:54;32.20;;;15.88;;
48835;SDS011;62581;47.342;7.908;2024-01-15T02:04:21;38.63;;;17.20;;
48835;SDS011;62581;47.342;7.908;2024-01-15T02:06:49;35.15;;;17.23;;
48835;SDS011;62581;47.342;7.908;2024-01-15T02:09:16;40.15;;;19.23;;
48835;SDS011;62581;47.342;7.908;2024-01-15T02:11:45;39.90;;;18.70;;
48835;SDS011;62581;47.342;7.908;2024-01-15T02:14:13;43.00;;;19.42;;
48835;SDS011;62581;47.342;7.908;2024-01-15T02:16:42;40.10;;;18.92;;
48835;SDS011;62581;47.342;7.908;2024-01-15T02:19:14;44.13;;;20.98;;
48835;SDS011;62581;47.342;7.908;2024-01-15T02:21:41;49.15;;;22.90;;
48835;SDS011;62581;47.342;7.908;2024-01-15T02:24:09;47.25;;;22.40;;
48835;SDS011;62581;47.342;7.908;2024-01-15T02:26:37;43.60;;;21.10;;
48835;SDS011;62581;47.342;7.908;2024-01-15T02:29:04;49.33;;;20.20;;
48835;SDS011;62581;47.342;7.908;2024-01-15T02:31:33;49.72;;;21.38;;
48835;SDS011;62581;47.342;7.908;2024-01-15T02:34:00;47.72;;;21.15;;
48835;SDS011;62581;47.342;7.908;2024-01-15T02:36:26;49.10;;;22.00;;
48835;SDS011;62581;47.342;7.908;2024-01-15T02:38:53;49.30;;;22.02;;
48835;SDS011;62581;47.342;7.908;2024-01-15T02:41:22;53.78;;;21.92;;
48835;SDS011;62581;47.342;7.908;2024-01-15T02:43:48;49.50;;;21.77;;
48835;SDS011;62581;47.342;7.908;2024-01-15T02:46:15;50.80;;;22.17;;
48835;SDS011;62581;47.342;7.908;2024-01-15T02:48:42;56.85;;;22.85;;
48835;SDS011;62581;47.342;7.908;2024-01-15T02:51:09;50.53;;;22.20;;
48835;SDS011;62581;47.342;7.908;2024-01-15T02:53:36;51.85;;;21.50;;
48835;SDS011;62581;47.342;7.908;2024-01-15T02:56:03;53.80;;;22.75;;
48835;SDS011;62581;47.342;7.908;2024-01-15T02:58:32;55.92;;;23.02;;
48835;SDS011;62581;47.342;7.908;2024-01-15T03:00:59;49.17;;;21.58;;
48835;SDS011;62581;47.342;7.908;2024-01-15T03:03:25;56.45;;;22.20;;
48835;SDS011;62581;47.342;7.908;2024-01-15T03:05:52;63.22;;;24.52;;
48835;SDS011;62581;47.342;7.908;2024-01-15T03:08:19;54.88;;;23.02;;
48835;SDS011;62581;47.342;7.908;2024-01-15T03:10:47;58.60;;;22.10;;
48835;SDS011;62581;47.342;7.908;2024-01-15T03:13:14;52.60;;;21.77;;
48835;SDS011;62581;47.342;7.908;2024-01-15T03:15:42;53.25;;;22.30;;
48835;SDS011;62581;47.342;7.908;2024-01-15T03:18:09;53.78;;;21.75;;
48835;SDS011;62581;47.342;7.908;2024-01-15T03:20:36;46.75;;;20.70;;
48835;SDS011;62581;47.342;7.908;2024-01-15T03:23:03;55.30;;;22.52;;
48835;SDS011;62581;47.342;7.908;2024-01-15T03:25:30;48.53;;;20.45;;
48835;SDS011;62581;47.342;7.908;2024-01-15T03:27:57;48.95;;;20.58;;
48835;SDS011;62581;47.342;7.908;2024-01-15T03:30:24;51.08;;;22.48;;
48835;SDS011;62581;47.342;7.908;2024-01-15T03:32:52;50.72;;;21.98;;
48835;SDS011;62581;47.342;7.908;2024-01-15T03:35:19;52.10;;;20.88;;
48835;SDS011;62581;47.342;7.908;2024-01-15T03:37:47;56.53;;;21.52;;
48835;SDS011;62581;47.342;7.908;2024-01-15T03:40:14;56.20;;;23.17;;
48835;SDS011;62581;47.342;7.908;2024-01-15T03:42:41;54.78;;;22.45;;
48835;SDS011;62581;47.342;7.908;2024-01-15T03:45:08;53.33;;;22.23;;
48835;SDS011;62581;47.342;7.908;2024-01-15T03:47:35;55.70;;;22.13;;
48835;SDS011;62581;47.342;7.908;2024-01-15T03:50:03;50.03;;;22.35;;
48835;SDS011;62581;47.342;7.908;2024-01-15T03:52:31;51.03;;;22.10;;
48835;SDS011;62581;47.342;7.908;2024-01-15T03:54:58;51.22;;;20.85;;
48835;SDS011;62581;47.342;7.908;2024-01-15T03:57:25;51.13;;;21.85;;
48835;SDS011;62581;47.342;7.908;2024-01-15T03:59:52;48.60;;;21.15;;
48835;SDS011;62581;47.342;7.908;2024-01-15T04:02:19;47.13;;;19.77;;
48835;SDS011;62581;47.342;7.908;2024-01-15T04:04:46;50.63;;;20.77;;
48835;SDS011;62581;47.342;7.908;2024-01-15T04:07:14;52.65;;;21.58;;
48835;SDS011;62581;47.342;7.908;2024-01-15T04:09:41;52.33;;;20.83;;
48835;SDS011;62581;47.342;7.908;2024-01-15T04:12:08;46.38;;;19.17;;
48835;SDS011;62581;47.342;7.908;2024-01-15T04:14:35;48.80;;;18.50;;
48835;SDS011;62581;47.342;7.908;2024-01-15T04:17:02;46.83;;;20.13;;
48835;SDS011;62581;47.342;7.908;2024-01-15T04:19:29;46.35;;;20.13;;
48835;SDS011;62581;47.342;7.908;2024-01-15T04:21:56;44.30;;;19.67;;
48835;SDS011;62581;47.342;7.908;2024-01-15T04:24:24;41.63;;;18.98;;
48835;SDS011;62581;47.342;7.908;2024-01-15T04:26:51;48.10;;;22.00;;
48835;SDS011;62581;47.342;7.908;2024-01-15T04:29:18;46.40;;;19.33;;
48835;SDS011;62581;47.342;7.908;2024-01-15T04:31:44;44.30;;;19.55;;
48835;SDS011;62581;47.342;7.908;2024-01-15T04:34:11;45.17;;;18.48;;
48835;SDS011;62581;47.342;7.908;2024-01-15T04:36:38;45.63;;;19.90;;
48835;SDS011;62581;47.342;7.908;2024-01-15T04:39:06;40.80;;;18.00;;
48835;SDS011;62581;47.342;7.908;2024-01-15T04:41:35;37.50;;;17.42;;
48835;SDS011;62581;47.342;7.908;2024-01-15T04:44:01;46.78;;;19.92;;
48835;SDS011;62581;47.342;7.908;2024-01-15T04:46:28;40.50;;;17.17;;
48835;SDS011;62581;47.342;7.908;2024-01-15T04:48:55;38.58;;;17.15;;
48835;SDS011;62581;47.342;7.908;2024-01-15T04:51:23;42.33;;;18.63;;
48835;SDS011;62581;47.342;7.908;2024-01-15T04:53:49;40.03;;;16.75;;
48835;SDS011;62581;47.342;7.908;2024-01-15T04:56:16;40.70;;;16.95;;
48835;SDS011;62581;47.342;7.908;2024-01-15T04:58:45;39.00;;;16.85;;
48835;SDS011;62581;47.342;7.908;2024-01-15T05:01:12;34.40;;;15.60;;
48835;SDS011;62581;47.342;7.908;2024-01-15T05:03:38;33.35;;;15.52;;
48835;SDS011;62581;47.342;7.908;2024-01-15T05:06:06;37.40;;;16.45;;
48835;SDS011;62581;47.342;7.908;2024-01-15T05:08:33;39.40;;;15.90;;
48835;SDS011;62581;47.342;7.908;2024-01-15T05:11:00;31.67;;;14.63;;
48835;SDS011;62581;47.342;7.908;2024-01-15T05:13:27;35.40;;;15.63;;
48835;SDS011;62581;47.342;7.908;2024-01-15T05:15:55;40.83;;;16.98;;
48835;SDS011;62581;47.342;7.908;2024-01-15T05:18:22;38.58;;;18.00;;
48835;SDS011;62581;47.342;7.908;2024-01-15T05:20:49;36.88;;;15.63;;
48835;SDS011;62581;47.342;7.908;2024-01-15T05:23:17;32.08;;;15.43;;
48835;SDS011;62581;47.342;7.908;2024-01-15T05:25:44;36.40;;;15.23;;
48835;SDS011;62581;47.342;7.908;2024-01-15T05:28:11;33.70;;;15.25;;
48835;SDS011;62581;47.342;7.908;2024-01-15T05:30:45;36.95;;;15.52;;
48835;SDS011;62581;47.342;7.908;2024-01-15T05:33:13;36.05;;;15.70;;
48835;SDS011;62581;47.342;7.908;2024-01-15T05:35:40;31.38;;;14.05;;
48835;SDS011;62581;47.342;7.908;2024-01-15T05:38:07;30.90;;;13.88;;
48835;SDS011;62581;47.342;7.908;2024-01-15T05:40:34;36.65;;;15.48;;
48835;SDS011;62581;47.342;7.908;2024-01-15T05:43:01;30.42;;;13.88;;
48835;SDS011;62581;47.342;7.908;2024-01-15T05:45:29;31.08;;;13.90;;
48835;SDS011;62581;47.342;7.908;2024-01-15T05:47:56;33.15;;;15.07;;
48835;SDS011;62581;47.342;7.908;2024-01-15T05:50:25;33.75;;;15.05;;
48835;SDS011;62581;47.342;7.908;2024-01-15T05:52:52;29.63;;;14.00;;
48835;SDS011;62581;47.342;7.908;2024-01-15T05:55:19;30.85;;;12.90;;
48835;SDS011;62581;47.342;7.908;2024-01-15T05:57:46;27.60;;;12.80;;
48835;SDS011;62581;47.342;7.908;2024-01-15T06:00:14;25.45;;;11.82;;
48835;SDS011;62581;47.342;7.908;2024-01-15T06:02:42;26.48;;;12.70;;
48835;SDS011;62581;47.342;7.908;2024-01-15T06:05:09;24.48;;;11.25;;
48835;SDS011;62581;47.342;7.908;2024-01-15T06:07:37;27.13;;;11.77;;
48835;SDS011;62581;47.342;7.908;2024-01-15T06:10:04;26.60;;;13.27;;
48835;SDS011;62581;47.342;7.908;2024-01-15T06:12:32;24.02;;;11.38;;
48835;SDS011;62581;47.342;7.908;2024-01-15T06:15:00;20.50;;;9.30;;
48835;SDS011;62581;47.342;7.908;2024-01-15T06:17:27;20.65;;;9.55;;
48835;SDS011;62581;47.342;7.908;2024-01-15T06:19:54;22.15;;;10.32;;
48835;SDS011;62581;47.342;7.908;2024-01-15T06:22:22;35.40;;;14.95;;
48835;SDS011;62581;47.342;7.908;2024-01-15T06:24:50;36.03;;;15.40;;
48835;SDS011;62581;47.342;7.908;2024-01-15T06:27:17;36.03;;;14.88;;
48835;SDS011;62581;47.342;7.908;2024-01-15T06:29:44;22.60;;;10.45;;
48835;SDS011;62581;47.342;7.908;2024-01-15T06:32:12;19.67;;;9.32;;
48835;SDS011;62581;47.342;7.908;2024-01-15T06:34:39;23.67;;;11.07;;
48835;SDS011;62581;47.342;7.908;2024-01-15T06:37:07;19.73;;;10.10;;
48835;SDS011;62581;47.342;7.908;2024-01-15T06:39:33;25.65;;;11.30;;
48835;SDS011;62581;47.342;7.908;2024-01-15T06:42:02;20.95;;;10.50;;
48835;SDS011;62581;47.342;7.908;2024-01-15T06:44:29;19.27;;;8.95;;
48835;SDS011;62581;47.342;7.908;2024-01-15T06:46:56;19.80;;;8.88;;
48835;SDS011;62581;47.342;7.908;2024-01-15T06:49:27;17.42;;;9.32;;
48835;SDS011;62581;47.342;7.908;2024-01-15T06:51:54;18.85;;;9.15;;
48835;SDS011;62581;47.342;7.908;2024-01-15T06:54:21;18.08;;;8.23;;
48835;SDS011;62581;47.342;7.908;2024-01-15T06:56:48;16.85;;;8.15;;
48835;SDS011;62581;47.342;7.908;2024-01-15T06:59:17;14.82;;;7.95;;
48835;SDS011;62581;47.342;7.908;2024-01-15T07:01:44;29.02;;;13.40;;
48835;SDS011;62581;47.342;7.908;2024-01-15T07:04:11;18.83;;;9.05;;
48835;SDS011;62581;47.342;7.908;2024-01-15T07:06:38;21.13;;;10.07;;
48835;SDS011;62581;47.342;7.908;2024-01-15T07:09:05;23.83;;;10.15;;
48835;SDS011;62581;47.342;7.908;2024-01-15T07:11:33;24.65;;;11.07;;
48835;SDS011;62581;47.342;7.908;2024-01-15T07:14:00;20.90;;;10.93;;
48835;SDS011;62581;47.342;7.908;2024-01-15T07:16:28;21.58;;;10.63;;
48835;SDS011;62581;47.342;7.908;2024-01-15T07:18:55;26.90;;;13.43;;
48835;SDS011;62581;47.342;7.908;2024-01-15T07:21:22;21.15;;;10.02;;
48835;SDS011;62581;47.342;7.908;2024-01-15T07:23:49;18.98;;;8.50;;
48835;SDS011;62581;47.342;7.908;2024-01-15T07:26:16;14.50;;;7.25;;
48835;SDS011;62581;47.342;7.908;2024-01-15T07:28:43;16.02;;;8.07;;
48835;SDS011;62581;47.342;7.908;2024-01-15T07:31:09;15.95;;;7.85;;
48835;SDS011;62581;47.342;7.908;2024-01-15T07:33:38;12.52;;;6.80;;
48835;SDS011;62581;47.342;7.908;2024-01-15T07:36:05;11.27;;;6.50;;
48835;SDS011;62581;47.342;7.908;2024-01-15T07:38:32;9.80;;;4.82;;
48835;SDS011;62581;47.342;7.908;2024-01-15T07:40:59;10.50;;;5.78;;
48835;SDS011;62581;47.342;7.908;2024-01-15T07:43:26;9.55;;;5.68;;
48835;SDS011;62581;47.342;7.908;2024-01-15T07:45:53;9.77;;;5.70;;
48835;SDS011;62581;47.342;7.908;2024-01-15T07:48:20;8.93;;;5.25;;
48835;SDS011;62581;47.342;7.908;2024-01-15T07:50:48;9.95;;;5.18;;
48835;SDS011;62581;47.342;7.908;2024-01-15T07:53:15;10.82;;;5.18;;
48835;SDS011;62581;47.342;7.908;2024-01-15T07:55:42;9.25;;;5.05;;
48835;SDS011;62581;47.342;7.908;2024-01-15T07:58:11;11.10;;;5.70;;
48835;SDS011;62581;47.342;7.908;2024-01-15T08:00:38;12.73;;;5.80;;
48835;SDS011;62581;47.342;7.908;2024-01-15T08:03:05;11.10;;;5.60;;
48835;SDS011;62581;47.342;7.908;2024-01-15T08:05:31;10.27;;;5.68;;
48835;SDS011;62581;47.342;7.908;2024-01-15T08:08:00;11.57;;;5.68;;
48835;SDS011;62581;47.342;7.908;2024-01-15T08:10:27;10.55;;;5.53;;
48835;SDS011;62581;47.342;7.908;2024-01-15T08:12:54;9.73;;;5.50;;
48835;SDS011;62581;47.342;7.908;2024-01-15T08:15:21;9.05;;;5.15;;
48835;SDS011;62581;47.342;7.908;2024-01-15T08:17:48;8.32;;;4.93;;
48835;SDS011;62581;47.342;7.908;2024-01-15T08:20:15;8.63;;;4.83;;
48835;SDS011;62581;47.342;7.908;2024-01-15T08:22:42;11.60;;;5.30;;
48835;SDS011;62581;47.342;7.908;2024-01-15T08:25:10;8.25;;;5.00;;
48835;SDS011;62581;47.342;7.908;2024-01-15T08:30:05;6.22;;;3.60;;
48835;SDS011;62581;47.342;7.908;2024-01-15T08:32:33;9.13;;;5.05;;
48835;SDS011;62581;47.342;7.908;2024-01-15T08:35:02;7.25;;;3.85;;
48835;SDS011;62581;47.342;7.908;2024-01-15T08:37:29;5.75;;;3.22;;
48835;SDS011;62581;47.342;7.908;2024-01-15T08:39:56;6.47;;;4.63;;
48835;SDS011;62581;47.342;7.908;2024-01-15T08:42:25;8.50;;;4.35;;
48835;SDS011;62581;47.342;7.908;2024-01-15T08:44:52;7.78;;;4.38;;
48835;SDS011;62581;47.342;7.908;2024-01-15T08:47:19;10.13;;;4.68;;
48835;SDS011;62581;47.342;7.908;2024-01-15T08:49:46;7.03;;;3.70;;
48835;SDS011;62581;47.342;7.908;2024-01-15T08:52:13;6.20;;;3.78;;
48835;SDS011;62581;47.342;7.908;2024-01-15T08:54:40;8.43;;;4.45;;
48835;SDS011;62581;47.342;7.908;2024-01-15T08:57:07;8.27;;;4.05;;
48835;SDS011;62581;47.342;7.908;2024-01-15T08:59:35;9.45;;;4.63;;
48835;SDS011;62581;47.342;7.908;2024-01-15T09:02:03;8.93;;;3.67;;
48835;SDS011;62581;47.342;7.908;2024-01-15T09:04:32;8.95;;;4.50;;
48835;SDS011;62581;47.342;7.908;2024-01-15T09:06:59;7.95;;;4.50;;
48835;SDS011;62581;47.342;7.908;2024-01-15T09:09:27;8.60;;;4.13;;
48835;SDS011;62581;47.342;7.908;2024-01-15T09:11:54;8.18;;;4.50;;
48835;SDS011;62581;47.342;7.908;2024-01-15T09:14:20;8.75;;;4.63;;
48835;SDS011;62581;47.342;7.908;2024-01-15T09:16:50;6.10;;;4.00;;
48835;SDS011;62581;47.342;7.908;2024-01-15T09:19:17;9.73;;;4.45;;
48835;SDS011;62581;47.342;7.908;2024-01-15T09:21:44;7.50;;;4.05;;
48835;SDS011;62581;47.342;7.908;2024-01-15T09:24:11;7.40;;;3.92;;
48835;SDS011;62581;47.342;7.908;2024-01-15T09:26:38;8.20;;;4.25;;
48835;SDS011;62581;47.342;7.908;2024-01-15T09:29:05;13.50;;;4.68;;
48835;SDS011;62581;47.342;7.908;2024-01-15T09:31:32;8.07;;;4.03;;
48835;SDS011;62581;47.342;7.908;2024-01-15T09:34:01;8.77;;;4.47;;
48835;SDS011;62581;47.342;7.908;2024-01-15T09:36:27;9.13;;;4.90;;
48835;SDS011;62581;47.342;7.908;2024-01-15T09:38:54;7.00;;;3.80;;
48835;SDS011;62581;47.342;7.908;2024-01-15T09:41:21;8.60;;;4.97;;
48835;SDS011;62581;47.342;7.908;2024-01-15T09:43:48;8.25;;;4.43;;
48835;SDS011;62581;47.342;7.908;2024-01-15T09:46:17;7.35;;;3.90;;
48835;SDS011;62581;47.342;7.908;2024-01-15T09:48:44;8.02;;;4.18;;
48835;SDS011;62581;47.342;7.908;2024-01-15T09:51:13;8.15;;;4.43;;
48835;SDS011;62581;47.342;7.908;2024-01-15T09:53:40;8.05;;;4.60;;
48835;SDS011;62581;47.342;7.908;2024-01-15T09:56:09;9.20;;;4.90;;
48835;SDS011;62581;47.342;7.908;2024-01-15T09:58:37;7.97;;;4.55;;
48835;SDS011;62581;47.342;7.908;2024-01-15T10:01:06;12.95;;;4.65;;
48835;SDS011;62581;47.342;7.908;2024-01-15T10:03:34;8.20;;;4.27;;
48835;SDS011;62581;47.342;7.908;2024-01-15T10:06:03;9.98;;;5.18;;
48835;SDS011;62581;47.342;7.908;2024-01-15T10:08:32;24.20;;;4.60;;
48835;SDS011;62581;47.342;7.908;2024-01-15T10:11:00;8.15;;;4.68;;
48835;SDS011;62581;47.342;7.908;2024-01-15T10:13:29;7.95;;;4.70;;
48835;SDS011;62581;47.342;7.908;2024-01-15T10:15:55;7.13;;;4.20;;
48835;SDS011;62581;47.342;7.908;2024-01-15T10:18:23;9.50;;;4.15;;
48835;SDS011;62581;47.342;7.908;2024-01-15T10:20:50;9.13;;;4.68;;
48835;SDS011;62581;47.342;7.908;2024-01-15T10:23:18;11.25;;;4.30;;
48835;SDS011;62581;47.342;7.908;2024-01-15T10:25:47;5.47;;;3.35;;
48835;SDS011;62581;47.342;7.908;2024-01-15T10:28:14;11.20;;;5.30;;
48835;SDS011;62581;47.342;7.908;2024-01-15T10:30:41;8.35;;;4.88;;
48835;SDS011;62581;47.342;7.908;2024-01-15T10:33:08;7.43;;;3.95;;
48835;SDS011;62581;47.342;7.908;2024-01-15T10:35:36;6.93;;;4.10;;
48835;SDS011;62581;47.342;7.908;2024-01-15T10:38:05;10.25;;;3.60;;
48835;SDS011;62581;47.342;7.908;2024-01-15T10:40:32;7.65;;;3.80;;
48835;SDS011;62581;47.342;7.908;2024-01-15T10:43:00;7.60;;;4.30;;
48835;SDS011;62581;47.342;7.908;2024-01-15T10:45:28;8.15;;;3.45;;
48835;SDS011;62581;47.342;7.908;2024-01-15T10:47:55;10.70;;;4.07;;
48835;SDS011;62581;47.342;7.908;2024-01-15T10:50:23;10.73;;;6.32;;
48835;SDS011;62581;47.342;7.908;2024-01-15T10:52:51;9.98;;;4.30;;
48835;SDS011;62581;47.342;7.908;2024-01-15T10:55:18;6.10;;;3.88;;
48835;SDS011;62581;47.342;7.908;2024-01-15T10:57:46;4.78;;;2.90;;
48835;SDS011;62581;47.342;7.908;2024-01-15T11:02:43;6.50;;;2.63;;
48835;SDS011;62581;47.342;7.908;2024-01-15T11:05:10;5.40;;;2.65;;
48835;SDS011;62581;47.342;7.908;2024-01-15T11:07:37;6.25;;;3.70;;
48835;SDS011;62581;47.342;7.908;2024-01-15T11:10:07;6.05;;;3.15;;
48835;SDS011;62581;47.342;7.908;2024-01-15T11:12:55;3.53;;;2.85;;
48835;SDS011;62581;47.342;7.908;2024-01-15T11:15:23;4.20;;;2.50;;
48835;SDS011;62581;47.342;7.908;2024-01-15T11:18:00;4.47;;;2.50;;
48835;SDS011;62581;47.342;7.908;2024-01-15T11:20:30;4.70;;;2.75;;
48835;SDS011;62581;47.342;7.908;2024-01-15T11:22:57;4.20;;;2.67;;
48835;SDS011;62581;47.342;7.908;2024-01-15T11:25:24;7.05;;;2.30;;
48835;SDS011;62581;47.342;7.908;2024-01-15T11:28:01;4.18;;;2.35;;
48835;SDS011;62581;47.342;7.908;2024-01-15T11:30:30;6.75;;;2.40;;
48835;SDS011;62581;47.342;7.908;2024-01-15T11:33:01;3.50;;;2.17;;
48835;SDS011;62581;47.342;7.908;2024-01-15T11:38:26;4.70;;;2.35;;
48835;SDS011;62581;47.342;7.908;2024-01-15T11:40:54;11.25;;;2.78;;
48835;SDS011;62581;47.342;7.908;2024-01-15T11:43:21;3.80;;;1.77;;
48835;SDS011;62581;47.342;7.908;2024-01-15T11:45:51;3.28;;;2.05;;
48835;SDS011;62581;47.342;7.908;2024-01-15T11:48:19;4.15;;;2.22;;
48835;SDS011;62581;47.342;7.908;2024-01-15T11:50:49;2.17;;;1.58;;
48835;SDS011;62581;47.342;7.908;2024-01-15T11:53:17;2.10;;;1.85;;
48835;SDS011;62581;47.342;7.908;2024-01-15T11:55:53;3.08;;;1.95;;
48835;SDS011;62581;47.342;7.908;2024-01-15T11:58:24;2.40;;;1.83;;
48835;SDS011;62581;47.342;7.908;2024-01-15T12:00:53;2.38;;;1.70;;
48835;SDS011;62581;47.342;7.908;2024-01-15T12:03:20;2.35;;;1.77;;
48835;SDS011;62581;47.342;7.908;2024-01-15T12:05:48;3.13;;;1.73;;
48835;SDS011;62581;47.342;7.908;2024-01-15T12:08:15;2.55;;;1.77;;
48835;SDS011;62581;47.342;7.908;2024-01-15T12:10:48;5.43;;;1.92;;
48835;SDS011;62581;47.342;7.908;2024-01-15T12:13:16;2.08;;;1.70;;
48835;SDS011;62581;47.342;7.908;2024-01-15T12:15:44;2.35;;;1.73;;
48835;SDS011;62581;47.342;7.908;2024-01-15T12:18:14;3.13;;;1.63;;
48835;SDS011;62581;47.342;7.908;2024-01-15T12:20:43;2.45;;;1.42;;
48835;SDS011;62581;47.342;7.908;2024-01-15T12:23:12;1.90;;;1.38;;
48835;SDS011;62581;47.342;7.908;2024-01-15T12:25:39;1.70;;;1.30;;
48835;SDS011;62581;47.342;7.908;2024-01-15T12:28:07;2.65;;;1.55;;
48835;SDS011;62581;47.342;7.908;2024-01-15T12:30:34;2.63;;;1.50;;
48835;SDS011;62581;47.342;7.908;2024-01-15T12:33:03;4.10;;;1.60;;
48835;SDS011;62581;47.342;7.908;2024-01-15T12:35:31;2.40;;;1.77;;
48835;SDS011;62581;47.342;7.908;2024-01-15T12:38:00;3.70;;;1.77;;
48835;SDS011;62581;47.342;7.908;2024-01-15T12:40:28;2.00;;;1.48;;
48835;SDS011;62581;47.342;7.908;2024-01-15T12:42:55;3.38;;;1.70;;
48835;SDS011;62581;47.342;7.908;2024-01-15T12:45:22;2.42;;;2.10;;
48835;SDS011;62581;47.342;7.908;2024-01-15T12:47:50;7.18;;;2.55;;
48835;SDS011;62581;47.342;7.908;2024-01-15T12:50:17;3.30;;;1.88;;
48835;SDS011;62581;47.342;7.908;2024-01-15T12:52:46;2.33;;;1.80;;
48835;SDS011;62581;47.342;7.908;2024-01-15T12:55:13;2.28;;;1.58;;
48835;SDS011;62581;47.342;7.908;2024-01-15T12:57:40;4.60;;;2.30;;
48835;SDS011;62581;47.342;7.908;2024-01-15T13:00:07;4.13;;;1.90;;
48835;SDS011;62581;47.342;7.908;2024-01-15T13:02:37;3.35;;;2.35;;
48835;SDS011;62581;47.342;7.908;2024-01-15T13:05:06;4.78;;;2.17;;
48835;SDS011;62581;47.342;7.908;2024-01-15T13:07:34;4.60;;;2.53;;
48835;SDS011;62581;47.342;7.908;2024-01-15T13:10:03;4.88;;;2.80;;
48835;SDS011;62581;47.342;7.908;2024-01-15T13:12:32;7.53;;;3.28;;
48835;SDS011;62581;47.342;7.908;2024-01-15T13:15:00;8.43;;;3.05;;
48835;SDS011;62581;47.342;7.908;2024-01-15T13:19:55;2.33;;;1.83;;
48835;SDS011;62581;47.342;7.908;2024-01-15T13:22:22;6.03;;;1.58;;
48835;SDS011;62581;47.342;7.908;2024-01-15T13:24:54;2.83;;;1.95;;
48835;SDS011;62581;47.342;7.908;2024-01-15T13:27:22;5.18;;;1.90;;
48835;SDS011;62581;47.342;7.908;2024-01-15T13:29:50;5.32;;;2.00;;
48835;SDS011;62581;47.342;7.908;2024-01-15T13:32:17;3.05;;;1.65;;
48835;SDS011;62581;47.342;7.908;2024-01-15T13:34:50;3.35;;;1.70;;
48835;SDS011;62581;47.342;7.908;2024-01-15T13:37:17;3.13;;;1.70;;
48835;SDS011;62581;47.342;7.908;2024-01-15T13:39:44;5.75;;;2.08;;
48835;SDS011;62581;47.342;7.908;2024-01-15T13:42:11;6.68;;;2.08;;
48835;SDS011;62581;47.342;7.908;2024-01-15T13:44:39;2.78;;;1.75;;
48835;SDS011;62581;47.342;7.908;2024-01-15T13:47:06;2.63;;;1.70;;
48835;SDS011;62581;47.342;7.908;2024-01-15T13:49:34;2.85;;;2.00;;
48835;SDS011;62581;47.342;7.908;2024-01-15T13:52:02;3.67;;;2.08;;
48835;SDS011;62581;47.342;7.908;2024-01-15T13:54:30;4.97;;;2.10;;
48835;SDS011;62581;47.342;7.908;2024-01-15T13:56:56;4.88;;;2.08;;
48835;SDS011;62581;47.342;7.908;2024-01-15T13:59:24;4.15;;;2.03;;
48835;SDS011;62581;47.342;7.908;2024-01-15T14:01:53;2.65;;;1.55;;
48835;SDS011;62581;47.342;7.908;2024-01-15T14:04:19;3.65;;;2.15;;
48835;SDS011;62581;47.342;7.908;2024-01-15T14:06:46;2.58;;;1.60;;
48835;SDS011;62581;47.342;7.908;2024-01-15T14:09:14;2.72;;;1.52;;
48835;SDS011;62581;47.342;7.908;2024-01-15T14:11:40;4.60;;;1.73;;
48835;SDS011;62581;47.342;7.908;2024-01-15T14:14:08;2.83;;;1.65;;
48835;SDS011;62581;47.342;7.908;2024-01-15T14:16:35;1.17;;;0.88;;
48835;SDS011;62581;47.342;7.908;2024-01-15T14:19:03;1.17;;;0.80;;
48835;SDS011;62581;47.342;7.908;2024-01-15T14:21:31;1.00;;;0.77;;
48835;SDS011;62581;47.342;7.908;2024-01-15T14:23:58;2.00;;;0.93;;
48835;SDS011;62581;47.342;7.908;2024-01-15T14:26:25;1.50;;;1.20;;
48835;SDS011;62581;47.342;7.908;2024-01-15T14:28:52;1.60;;;1.50;;
48835;SDS011;62581;47.342;7.908;2024-01-15T14:31:20;4.65;;;1.40;;
48835;SDS011;62581;47.342;7.908;2024-01-15T14:33:47;2.13;;;1.30;;
48835;SDS011;62581;47.342;7.908;2024-01-15T14:36:15;1.20;;;1.00;;
48835;SDS011;62581;47.342;7.908;2024-01-15T14:38:42;2.47;;;1.30;;
48835;SDS011;62581;47.342;7.908;2024-01-15T14:41:09;2.78;;;1.08;;
48835;SDS011;62581;47.342;7.908;2024-01-15T14:43:35;4.22;;;1.30;;
48835;SDS011;62581;47.342;7.908;2024-01-15T14:46:02;1.80;;;1.38;;
48835;SDS011;62581;47.342;7.908;2024-01-15T14:48:30;3.28;;;1.52;;